Time;durP1;ratioP1;P1;durP2;ratioP2;P2;SDS_P1;SDS_P2;PMS_P1;PMS_P2;Temp;Humidity;BMP_temperature;BMP_pressure;BME280_temperature;BME280_humidity;BME280_pressure;Samples;Min_cycle;Max_cycle;Signal;HPM_P1;HPM_P2
2022/10/03 02:47:14;;;;;;;1.67;0.20;;;13.50;99.90;;;;;;5455358;23;84661;-77
2022/10/03 02:50:18;;;;;;;0.50;0.10;;;13.50;99.90;;;;;;4918351;28;82101;-79
2022/10/03 02:52:44;;;;;;;1.05;0.10;;;13.60;99.90;;;;;;4918800;28;83023;-79
2022/10/03 02:55:41;;;;;;;1.85;0.28;;;13.60;99.90;;;;;;4920238;28;83010;-78
2022/10/03 02:58:13;;;;;;;1.77;0.20;;;13.60;99.90;;;;;;4922538;28;82285;-78
2022/10/03 03:01:16;;;;;;;2.08;0.20;;;13.60;99.90;;;;;;4920918;28;81990;-78
2022/10/03 03:03:57;;;;;;;0.73;0.10;;;13.60;99.90;;;;;;4902675;28;81717;-78
2022/10/03 03:06:38;;;;;;;0.93;0.10;;;13.60;99.90;;;;;;4911262;28;81200;-78
2022/10/03 03:09:16;;;;;;;1.20;0.10;;;13.60;99.90;;;;;;4920662;28;82070;-78
2022/10/03 03:12:45;;;;;;;1.35;0.13;;;13.70;99.90;;;;;;4921995;28;83490;-78
2022/10/03 03:16:09;;;;;;;0.80;0.10;;;13.80;99.90;;;;;;4775624;29;81941;-79
2022/10/03 03:18:44;;;;;;;4.25;0.10;;;13.80;99.90;;;;;;4918629;28;81192;-78
2022/10/03 03:21:22;;;;;;;1.17;0.10;;;13.80;99.90;;;;;;4919496;28;81700;-77
2022/10/03 03:24:14;;;;;;;0.75;0.10;;;13.80;99.90;;;;;;4914220;28;84882;-83
2022/10/03 03:26:49;;;;;;;1.90;0.20;;;13.60;99.90;;;;;;4919072;28;82897;-83
2022/10/03 03:29:48;;;;;;;0.88;0.17;;;13.60;99.90;;;;;;4916632;28;81528;-84
2022/10/03 03:32:33;;;;;;;1.55;0.10;;;13.50;99.90;;;;;;4914909;28;81847;-83
2022/10/03 03:35:11;;;;;;;0.90;0.10;;;13.50;99.90;;;;;;4918164;28;82725;-84
2022/10/03 03:38:13;;;;;;;0.70;0.05;;;13.50;99.90;;;;;;4907104;28;82034;-84
2022/10/03 03:41:01;;;;;;;1.08;0.10;;;13.50;99.90;;;;;;4925764;28;81546;-83
2022/10/03 03:44:10;;;;;;;1.35;0.00;;;13.60;99.90;;;;;;4917018;28;81393;-81
2022/10/03 03:47:03;;;;;;;0.60;0.10;;;13.70;99.90;;;;;;4913780;28;82533;-82
2022/10/03 03:49:50;;;;;;;1.02;0.10;;;13.70;99.90;;;;;;4913004;28;83236;-80
2022/10/03 03:52:46;;;;;;;0.68;0.00;;;13.60;99.90;;;;;;4903424;28;82040;-83
2022/10/03 03:55:17;;;;;;;0.55;0.10;;;13.60;99.90;;;;;;4896795;28;82057;-85
2022/10/03 03:58:02;;;;;;;0.63;0.10;;;13.60;99.90;;;;;;4895347;28;82238;-83
2022/10/03 04:00:44;;;;;;;1.55;0.10;;;13.60;99.90;;;;;;4905082;28;83331;-81
2022/10/03 04:03:34;;;;;;;2.60;0.10;;;13.70;99.90;;;;;;4898111;28;81999;-80
2022/10/03 04:06:26;;;;;;;1.63;0.20;;;13.70;99.90;;;;;;4900169;28;81526;-80
2022/10/03 04:09:18;;;;;;;1.08;0.25;;;13.70;99.90;;;;;;4868167;28;83607;-79
2022/10/03 04:12:08;;;;;;;1.90;0.45;;;13.70;99.90;;;;;;4893754;28;81198;-78
2022/10/03 04:14:49;;;;;;;1.00;0.20;;;13.70;99.90;;;;;;4906854;28;81311;-79
2022/10/03 04:20:43;;;;;;;4.63;0.60;;;13.60;99.90;;;;;;4907316;28;82766;-84
2022/10/03 04:23:33;;;;;;;4.28;0.47;;;13.50;99.90;;;;;;4910171;28;82079;-81
2022/10/03 04:26:07;;;;;;;2.28;0.60;;;13.50;99.90;;;;;;4900790;28;82016;-82
2022/10/03 04:28:48;;;;;;;1.67;0.35;;;13.40;99.90;;;;;;4904701;28;82002;-80
2022/10/03 04:31:31;;;;;;;1.40;0.30;;;13.30;99.90;;;;;;4907606;28;82310;-82
2022/10/03 04:34:09;;;;;;;2.50;0.50;;;13.30;99.90;;;;;;4900870;28;82173;-80
2022/10/03 04:36:46;;;;;;;1.73;0.20;;;13.40;99.90;;;;;;4907845;28;81642;-81
2022/10/03 04:39:29;;;;;;;1.40;0.20;;;13.40;99.90;;;;;;4907999;28;81759;-81
2022/10/03 04:42:12;;;;;;;1.08;0.20;;;13.50;99.90;;;;;;4908174;28;81572;-79
2022/10/03 04:45:03;;;;;;;;;;;13.50;99.90;;;;;;4909533;28;81481;-83
2022/10/03 04:47:52;;;;;;;1.55;0.20;;;13.40;99.90;;;;;;4895118;28;82630;-83
2022/10/03 04:50:44;;;;;;;1.70;0.45;;;13.40;99.90;;;;;;4911552;28;83236;-83
2022/10/03 04:53:39;;;;;;;2.08;0.20;;;13.30;99.90;;;;;;4897191;28;82213;-85
2022/10/03 04:56:11;;;;;;;1.98;0.20;;;13.30;99.90;;;;;;4903758;28;81804;-83
2022/10/03 04:59:08;;;;;;;1.00;0.30;;;13.40;99.90;;;;;;4910545;28;81675;-86
2022/10/03 05:01:46;;;;;;;30.38;15.05;;;13.40;99.90;;;;;;4915082;28;81758;-84
2022/10/03 05:04:37;;;;;;;8.43;2.30;;;13.30;99.90;;;;;;4917779;28;82410;-85
2022/10/03 05:07:13;;;;;;;5.28;2.58;;;13.30;99.90;;;;;;4908088;28;81276;-84
2022/10/03 05:09:55;;;;;;;12.02;6.47;;;13.30;99.90;;;;;;4916291;28;81724;-84
2022/10/03 05:12:43;;;;;;;3.90;1.50;;;13.30;99.90;;;;;;4908206;28;81460;-85
2022/10/03 05:15:32;;;;;;;2.92;0.50;;;13.30;99.90;;;;;;4902957;28;82334;-83
2022/10/03 05:18:27;;;;;;;;;;;13.20;99.90;;;;;;4907972;28;83395;-84
2022/10/03 05:21:04;;;;;;;3.80;1.00;;;13.20;99.90;;;;;;4826168;28;81522;-85
2022/10/03 05:24:03;;;;;;;1.70;0.32;;;13.10;99.90;;;;;;4903397;28;81759;-84
2022/10/03 05:26:47;;;;;;;1.20;0.30;;;13.10;99.90;;;;;;4905628;28;81526;-84
2022/10/03 05:29:24;;;;;;;1.05;0.30;;;13.10;99.90;;;;;;4901716;28;81339;-85
2022/10/03 05:32:18;;;;;;;3.63;0.55;;;13.10;99.90;;;;;;4904796;28;81154;-84
2022/10/03 05:35:20;;;;;;;1.77;0.70;;;13.10;99.90;;;;;;4904216;28;81514;-86
2022/10/03 05:37:58;;;;;;;1.55;0.30;;;13.10;99.90;;;;;;4870371;28;81976;-83
2022/10/03 05:40:27;;;;;;;2.42;0.40;;;13.20;99.90;;;;;;4908411;28;81610;-85
2022/10/03 05:43:21;;;;;;;2.80;1.02;;;13.10;99.90;;;;;;4902182;28;82767;-85
2022/10/03 05:46:00;;;;;;;1.40;0.40;;;13.20;99.90;;;;;;4914843;28;83439;-84
2022/10/03 05:48:37;;;;;;;1.75;0.30;;;13.20;99.90;;;;;;4908641;28;81458;-85
2022/10/03 05:51:15;;;;;;;2.42;0.50;;;13.20;99.90;;;;;;4910973;28;81654;-84
2022/10/03 05:53:53;;;;;;;1.77;0.40;;;13.30;99.90;;;;;;4908271;28;81914;-85
2022/10/03 05:56:46;;;;;;;1.35;0.40;;;13.40;99.90;;;;;;4908523;28;81238;-84
2022/10/03 05:59:40;;;;;;;4.63;0.40;;;13.40;99.90;;;;;;4903201;28;82170;-83
2022/10/03 06:02:15;;;;;;;2.20;0.75;;;13.60;99.90;;;;;;4908390;28;83482;-86
2022/10/03 06:05:16;;;;;;;1.77;0.40;;;13.70;99.90;;;;;;4911751;28;81395;-85
2022/10/03 06:08:10;;;;;;;3.28;1.15;;;13.90;99.90;;;;;;4900941;28;81623;-85
2022/10/03 06:10:52;;;;;;;3.33;1.52;;;14.30;99.90;;;;;;4900179;28;83688;-85
2022/10/03 06:13:47;;;;;;;2.83;1.05;;;14.80;99.90;;;;;;4898641;28;82231;-85
2022/10/03 06:16:25;;;;;;;2.63;0.55;;;14.90;99.90;;;;;;4885569;28;82035;-85
2022/10/03 06:19:05;;;;;;;1.52;0.52;;;14.90;99.90;;;;;;4899385;28;82233;-85
2022/10/03 06:21:59;;;;;;;3.60;0.52;;;15.00;99.90;;;;;;4901390;28;82238;-85
2022/10/03 06:24:31;;;;;;;3.30;0.80;;;15.00;99.90;;;;;;4900660;28;81711;-85
2022/10/03 06:27:34;;;;;;;3.50;1.55;;;15.00;99.90;;;;;;4899369;28;82789;-85
2022/10/03 06:30:10;;;;;;;2.30;0.40;;;14.90;99.90;;;;;;4896710;28;81628;-86
2022/10/03 06:33:07;;;;;;;3.50;0.22;;;14.80;99.90;;;;;;4894732;28;83360;-85
2022/10/03 06:36:03;;;;;;;1.85;0.22;;;14.90;99.90;;;;;;4901581;28;82203;-85
2022/10/03 06:38:41;;;;;;;1.77;0.45;;;14.90;99.90;;;;;;4899818;28;82216;-85
2022/10/03 06:41:30;;;;;;;2.22;0.47;;;14.90;99.90;;;;;;4902016;28;81299;-86
2022/10/03 06:44:14;;;;;;;4.18;0.50;;;15.00;99.90;;;;;;4899805;28;82248;-86
2022/10/03 06:46:58;;;;;;;1.85;0.50;;;15.30;99.90;;;;;;4900884;28;83564;-86
2022/10/03 06:49:38;;;;;;;1.60;0.30;;;15.50;99.90;;;;;;4900541;28;82072;-86
2022/10/03 06:52:38;;;;;;;2.63;0.38;;;15.60;98.00;;;;;;4898911;28;83329;-85
2022/10/03 06:55:41;;;;;;;1.35;0.32;;;15.50;99.60;;;;;;4895509;28;81773;-86
2022/10/03 06:58:20;;;;;;;2.83;1.65;;;15.50;99.30;;;;;;4900990;28;81209;-86
2022/10/03 07:01:04;;;;;;;2.47;0.60;;;15.40;99.90;;;;;;4895388;28;81685;-86
2022/10/03 07:04:00;;;;;;;2.08;0.70;;;15.40;99.90;;;;;;4898583;28;81902;-86
2022/10/03 07:06:34;;;;;;;2.63;0.95;;;15.70;99.70;;;;;;4891230;28;84502;-86
2022/10/03 07:09:37;;;;;;;4.18;0.93;;;15.90;98.80;;;;;;4899260;28;82717;-86
2022/10/03 07:12:25;;;;;;;3.42;0.63;;;16.10;98.40;;;;;;4896848;28;81623;-86
2022/10/03 07:15:00;;;;;;;5.25;0.98;;;16.20;98.70;;;;;;4897088;28;82036;-86
2022/10/03 07:17:43;;;;;;;3.60;0.98;;;16.00;98.90;;;;;;4902306;28;81539;-86
2022/10/03 07:20:14;;;;;;;3.10;0.52;;;15.90;99.00;;;;;;4898338;28;81975;-86
2022/10/03 07:23:19;;;;;;;3.35;0.52;;;15.90;98.20;;;;;;4897844;28;81779;-86
2022/10/03 07:25:52;;;;;;;3.03;0.60;;;15.80;99.90;;;;;;4904167;28;81925;-86
2022/10/03 07:28:55;;;;;;;1.85;0.40;;;16.20;98.80;;;;;;4903983;28;82606;-85
2022/10/03 07:31:45;;;;;;;3.15;0.50;;;16.30;97.30;;;;;;4904232;28;83453;-86
2022/10/03 07:34:31;;;;;;;4.13;0.95;;;16.10;97.00;;;;;;4889990;28;82579;-86
2022/10/03 07:40:07;;;;;;;2.88;0.95;;;16.10;97.70;;;;;;4900656;28;81357;-86
2022/10/03 07:42:51;;;;;;;1.65;0.40;;;16.00;97.30;;;;;;4904224;28;81684;-86
2022/10/03 07:46:03;;;;;;;3.17;0.65;;;15.80;96.30;;;;;;4897609;28;82121;-86
2022/10/03 07:48:52;;;;;;;3.60;0.50;;;15.90;98.00;;;;;;4896732;28;83375;-86
2022/10/03 07:51:24;;;;;;;3.00;0.90;;;16.30;97.70;;;;;;4903140;28;82358;-86
2022/10/03 07:54:24;;;;;;;3.40;0.77;;;17.00;95.10;;;;;;4897030;28;81953;-86
2022/10/03 07:57:36;;;;;;;2.80;0.60;;;17.80;92.40;;;;;;4889010;28;81442;-86
2022/10/03 08:00:51;;;;;;;3.30;1.08;;;19.10;90.00;;;;;;4859910;28;83175;-87
2022/10/03 08:03:28;;;;;;;2.47;0.50;;;21.90;78.40;;;;;;4881692;28;82598;-87
2022/10/03 08:06:32;;;;;;;2.20;0.63;;;26.10;73.00;;;;;;4891250;28;82808;-88
2022/10/03 08:09:24;;;;;;;2.38;0.95;;;29.90;52.80;;;;;;4892032;28;82554;-88
2022/10/03 08:11:52;;;;;;;4.00;0.70;;;30.30;50.90;;;;;;4901567;28;82287;-88
2022/10/03 08:14:25;;;;;;;;;;;33.20;48.70;;;;;;4900985;28;81592;-89
2022/10/03 08:17:13;;;;;;;2.35;0.75;;;33.50;46.10;;;;;;4895518;28;81385;-88
2022/10/03 08:20:15;;;;;;;3.47;0.65;;;31.30;46.70;;;;;;4892115;28;81550;-88
2022/10/03 08:23:14;;;;;;;2.28;0.80;;;30.50;48.20;;;;;;4903033;28;82366;-88
2022/10/03 08:25:50;;;;;;;2.47;1.17;;;31.80;45.40;;;;;;4899677;28;82069;-89
2022/10/03 08:28:24;;;;;;;2.67;1.30;;;32.30;44.60;;;;;;4902742;28;81897;-89
2022/10/03 08:31:27;;;;;;;2.17;1.00;;;31.80;44.80;;;;;;4894639;28;82190;-89
2022/10/03 08:34:26;;;;;;;1.58;0.82;;;31.40;47.00;;;;;;4898031;28;82439;-89
2022/10/03 08:37:21;;;;;;;3.53;2.25;;;32.10;42.60;;;;;;4901565;28;82086;-89
2022/10/03 08:39:59;;;;;;;5.28;1.15;;;30.70;44.60;;;;;;4898639;28;82005;-89
2022/10/03 08:43:07;;;;;;;2.20;1.33;;;31.30;45.40;;;;;;4893678;28;81677;-89
2022/10/03 08:46:27;;;;;;;3.88;1.45;;;35.00;43.20;;;;;;4896281;28;82571;-89
2022/10/03 08:49:34;;;;;;;2.38;1.55;;;35.30;39.80;;;;;;4905535;28;82753;-89
2022/10/03 08:52:02;;;;;;;;;;;34.80;40.60;;;;;;4880353;28;82135;-90
2022/10/03 08:55:05;;;;;;;3.22;1.98;;;35.00;39.90;;;;;;4896991;28;81675;-89
2022/10/03 08:57:43;;;;;;;2.33;1.25;;;35.80;41.10;;;;;;4899599;28;81813;-89
2022/10/03 09:00:18;;;;;;;3.15;1.75;;;36.60;38.60;;;;;;4903315;28;83068;-89
2022/10/03 09:03:02;;;;;;;;;;;36.40;37.10;;;;;;4897989;28;82893;-90
2022/10/03 09:05:45;;;;;;;2.22;1.30;;;36.20;38.30;;;;;;4904230;28;81250;-90
2022/10/03 09:08:35;;;;;;;2.78;1.52;;;35.60;38.00;;;;;;4905160;28;81754;-90
2022/10/03 09:11:03;;;;;;;5.03;2.15;;;37.20;37.60;;;;;;4904729;28;83227;-90
2022/10/03 09:14:02;;;;;;;4.28;2.53;;;39.30;35.10;;;;;;4906616;28;82043;-90
2022/10/03 09:16:34;;;;;;;6.43;3.85;;;40.80;34.20;;;;;;4903149;28;81685;-88
2022/10/03 09:19:05;;;;;;;3.05;2.15;;;39.80;34.90;;;;;;4906716;28;81283;-87
2022/10/03 09:21:43;;;;;;;3.78;2.67;;;39.20;33.90;;;;;;4903401;28;82200;-88
2022/10/03 09:24:13;;;;;;;3.08;2.70;;;39.60;35.20;;;;;;4906860;28;82615;-89
2022/10/03 09:27:02;;;;;;;5.75;4.53;;;40.40;33.60;;;;;;4899996;28;82194;-90
2022/10/03 09:29:38;;;;;;;3.75;2.63;;;41.90;33.40;;;;;;4901600;28;82095;-90
2022/10/03 09:32:41;;;;;;;3.95;2.67;;;42.60;31.20;;;;;;4904311;28;81830;-90
2022/10/03 09:35:22;;;;;;;5.82;2.78;;;42.30;31.30;;;;;;4902014;28;81905;-90
2022/10/03 09:37:53;;;;;;;;;;;42.80;31.30;;;;;;4901120;28;81280;-89
2022/10/03 09:40:34;;;;;;;2.53;2.22;;;43.00;31.40;;;;;;4906768;28;81773;-89
2022/10/03 09:43:08;;;;;;;3.80;2.85;;;42.00;32.00;;;;;;4902260;28;82234;-89
2022/10/03 09:45:58;;;;;;;2.47;2.25;;;41.70;30.90;;;;;;4904163;28;81091;-89
2022/10/03 09:48:43;;;;;;;3.83;2.90;;;41.40;31.40;;;;;;4902088;28;81450;-89
2022/10/03 09:51:51;;;;;;;2.92;1.92;;;43.00;30.10;;;;;;4904447;28;84027;-90
2022/10/03 09:54:22;;;;;;;3.20;2.53;;;44.40;29.60;;;;;;4871344;28;82537;-90
2022/10/03 09:57:07;;;;;;;3.05;2.75;;;43.20;30.20;;;;;;4903841;28;82180;-90
2022/10/03 09:59:55;;;;;;;3.78;2.95;;;43.30;30.30;;;;;;4900911;28;81235;-91
2022/10/03 10:02:42;;;;;;;4.38;2.53;;;43.50;29.90;;;;;;4905303;28;83597;-90
2022/10/03 10:05:23;;;;;;;4.57;2.30;;;43.70;30.30;;;;;;4907412;28;83203;-90
2022/10/03 10:08:01;;;;;;;;;;;43.40;30.50;;;;;;4904381;28;82374;-90
2022/10/03 10:10:58;;;;;;;3.20;2.85;;;42.60;30.40;;;;;;4902293;28;81934;-89
2022/10/03 10:13:46;;;;;;;3.38;2.70;;;42.90;29.90;;;;;;4898916;28;81796;-90
2022/10/03 10:16:35;;;;;;;4.57;2.38;;;39.90;32.10;;;;;;4902645;28;82088;-90
2022/10/03 10:19:09;;;;;;;2.50;2.08;;;39.10;31.50;;;;;;4896240;28;82330;-88
2022/10/03 10:22:16;;;;;;;2.95;2.65;;;36.10;33.70;;;;;;4893644;28;83921;-89
2022/10/03 10:25:15;;;;;;;2.65;2.28;;;32.30;37.80;;;;;;4894485;28;81898;-89
2022/10/03 10:27:59;;;;;;;1.63;1.05;;;29.30;42.00;;;;;;4899089;28;82272;-87
2022/10/03 10:30:33;;;;;;;1.65;0.95;;;27.00;45.00;;;;;;4899738;28;82050;-86
2022/10/03 10:33:05;;;;;;;1.95;0.63;;;25.60;44.90;;;;;;4903330;28;81399;-87
2022/10/03 10:35:59;;;;;;;2.90;0.68;;;24.80;46.70;;;;;;4896859;28;81748;-87
2022/10/03 10:38:42;;;;;;;1.42;0.68;;;23.60;49.20;;;;;;4855514;28;81982;-87
2022/10/03 10:41:38;;;;;;;1.30;0.30;;;23.20;51.90;;;;;;4897848;28;81964;-90
2022/10/03 10:44:22;;;;;;;1.77;0.50;;;22.80;53.10;;;;;;4899808;28;81824;-89
2022/10/03 10:47:12;;;;;;;1.67;0.43;;;21.90;55.10;;;;;;4894172;28;81451;-90
2022/10/03 10:49:56;;;;;;;2.40;0.22;;;21.20;56.70;;;;;;4894566;28;84654;-88
2022/10/03 10:52:59;;;;;;;2.72;0.50;;;20.90;59.70;;;;;;4900096;28;82667;-87
2022/10/03 10:56:07;;;;;;;4.53;0.30;;;20.20;60.60;;;;;;4894606;28;81816;-86
2022/10/03 10:58:47;;;;;;;1.58;0.20;;;20.00;60.90;;;;;;4897569;28;81603;-87
2022/10/03 11:01:54;;;;;;;2.13;0.43;;;19.90;63.30;;;;;;4897269;28;81666;-87
2022/10/03 11:04:19;;;;;;;1.33;0.20;;;19.90;58.80;;;;;;4902460;28;83163;-87
2022/10/03 11:07:11;;;;;;;2.70;0.35;;;20.10;63.20;;;;;;4904452;28;81562;-86
2022/10/03 11:10:09;;;;;;;1.60;0.20;;;20.10;62.40;;;;;;4898005;28;81018;-88
2022/10/03 11:12:50;;;;;;;1.02;0.20;;;20.20;63.20;;;;;;4897514;28;84095;-88
2022/10/03 11:15:51;;;;;;;6.05;0.30;;;20.30;62.30;;;;;;4900101;28;81940;-89
2022/10/03 11:18:44;;;;;;;2.22;0.38;;;20.60;58.80;;;;;;4877188;28;82703;-89
2022/10/03 11:21:46;;;;;;;6.25;0.40;;;20.50;58.30;;;;;;4897614;28;81867;-89
2022/10/03 11:24:43;;;;;;;2.85;0.60;;;20.20;59.50;;;;;;4890946;28;81940;-87
2022/10/03 11:27:54;;;;;;;2.42;0.63;;;20.00;60.90;;;;;;4878087;28;82154;-88
2022/10/03 11:30:41;;;;;;;4.40;0.30;;;19.50;63.30;;;;;;4880392;28;81760;-88
2022/10/03 11:33:44;;;;;;;1.20;0.20;;;18.90;65.10;;;;;;4900009;28;81807;-88
2022/10/03 11:36:39;;;;;;;3.40;0.30;;;18.90;66.40;;;;;;4900686;28;83777;-87
2022/10/03 11:39:40;;;;;;;3.63;0.32;;;18.40;67.10;;;;;;4894432;28;81097;-88
2022/10/03 11:42:44;;;;;;;3.45;0.40;;;18.50;67.30;;;;;;4890032;28;82271;-87
2022/10/03 11:45:38;;;;;;;4.07;0.32;;;18.70;65.90;;;;;;4900356;28;81881;-87
2022/10/03 11:48:28;;;;;;;2.25;0.20;;;18.80;65.80;;;;;;4888688;28;82614;-88
2022/10/03 11:51:06;;;;;;;3.80;0.40;;;18.70;65.40;;;;;;4903996;28;82673;-87
2022/10/03 11:53:57;;;;;;;1.05;0.32;;;18.70;68.00;;;;;;4896201;28;81930;-88
2022/10/03 11:56:46;;;;;;;2.55;0.20;;;18.50;66.30;;;;;;4902358;28;81400;-88
2022/10/03 11:59:31;;;;;;;3.97;0.35;;;18.60;66.00;;;;;;4898868;28;82758;-88
2022/10/03 12:02:08;;;;;;;1.10;0.10;;;18.60;64.90;;;;;;4903902;28;81302;-87
2022/10/03 12:04:45;;;;;;;2.30;0.30;;;18.80;64.70;;;;;;4893285;28;81609;-88
2022/10/03 12:10:39;;;;;;;0.73;0.10;;;19.00;65.30;;;;;;4882634;28;81964;-87
2022/10/03 12:13:16;;;;;;;1.77;0.30;;;19.00;63.70;;;;;;4897069;28;82395;-87
2022/10/03 12:15:49;;;;;;;1.15;0.10;;;18.80;63.10;;;;;;4897603;28;82180;-87
2022/10/03 12:18:41;;;;;;;2.03;0.22;;;18.70;62.30;;;;;;4902990;28;81954;-87
2022/10/03 12:21:09;;;;;;;3.40;0.30;;;18.30;65.80;;;;;;4899578;28;84013;-87
2022/10/03 12:24:23;;;;;;;1.73;0.20;;;18.10;66.80;;;;;;4906750;28;82425;-88
2022/10/03 12:27:01;;;;;;;1.10;0.28;;;18.10;67.10;;;;;;4886960;28;81837;-88
2022/10/03 12:29:31;;;;;;;1.33;0.22;;;18.20;67.00;;;;;;4902933;28;81632;-87
2022/10/03 12:32:15;;;;;;;0.85;0.20;;;18.40;66.20;;;;;;4905088;28;81642;-86
2022/10/03 12:35:00;;;;;;;1.38;0.10;;;18.60;65.30;;;;;;4909100;28;81895;-87
2022/10/03 12:37:40;;;;;;;1.30;0.13;;;18.90;64.50;;;;;;4905450;28;81672;-86
2022/10/03 12:40:22;;;;;;;1.52;0.17;;;18.70;65.70;;;;;;4905445;28;81184;-86
2022/10/03 12:43:03;;;;;;;1.27;0.22;;;18.80;65.00;;;;;;4905987;28;83203;-86
2022/10/03 12:45:28;;;;;;;0.85;0.10;;;18.80;64.20;;;;;;4906033;28;82897;-86
2022/10/03 12:48:31;;;;;;;0.98;0.20;;;18.70;64.30;;;;;;4907548;28;81142;-87
2022/10/03 12:51:16;;;;;;;1.08;0.13;;;18.40;67.30;;;;;;4905543;28;81905;-87
2022/10/03 12:54:14;;;;;;;1.40;0.20;;;18.40;65.70;;;;;;4906175;28;82448;-87
2022/10/03 12:56:43;;;;;;;0.98;0.10;;;18.30;65.90;;;;;;4855005;28;81298;-87
2022/10/03 12:59:14;;;;;;;1.55;0.13;;;18.30;65.00;;;;;;4903249;28;81285;-87
2022/10/03 13:01:55;;;;;;;3.80;0.28;;;18.30;65.30;;;;;;4899113;28;81491;-88
2022/10/03 13:04:41;;;;;;;1.10;0.20;;;18.20;67.50;;;;;;4900670;28;82242;-88
2022/10/03 13:07:14;;;;;;;1.52;0.28;;;18.40;65.40;;;;;;4900775;28;83346;-88
2022/10/03 13:09:42;;;;;;;1.02;0.20;;;18.60;64.80;;;;;;4902166;28;82231;-87
2022/10/03 13:12:33;;;;;;;1.23;0.10;;;18.70;63.40;;;;;;4898160;28;81545;-87
2022/10/03 13:15:17;;;;;;;1.55;0.22;;;18.30;65.40;;;;;;4905449;28;81880;-88
2022/10/03 13:18:14;;;;;;;1.00;0.17;;;18.30;64.10;;;;;;4908493;28;81325;-87
2022/10/03 13:20:49;;;;;;;5.20;0.43;;;18.20;66.00;;;;;;4909206;28;81385;-87
2022/10/03 13:23:34;;;;;;;1.80;0.20;;;18.40;65.60;;;;;;4909420;28;81297;-87
2022/10/03 13:26:10;;;;;;;3.22;0.20;;;18.60;64.50;;;;;;4909290;28;81761;-87
2022/10/03 13:28:59;;;;;;;1.10;0.17;;;18.40;64.90;;;;;;4906762;28;82546;-87
2022/10/03 13:31:31;;;;;;;2.50;0.20;;;18.20;66.50;;;;;;4908481;28;81649;-86
2022/10/03 13:34:18;;;;;;;0.98;0.30;;;18.40;65.30;;;;;;4908999;28;81685;-88
2022/10/03 13:36:56;;;;;;;3.83;0.20;;;18.40;63.90;;;;;;4908422;28;83056;-88
2022/10/03 13:39:36;;;;;;;1.90;0.22;;;18.40;64.40;;;;;;4901980;28;82894;-87
2022/10/03 13:42:38;;;;;;;1.48;0.10;;;18.30;65.10;;;;;;4908758;28;81599;-87
2022/10/03 13:45:20;;;;;;;1.63;0.30;;;18.30;64.80;;;;;;4864049;28;81915;-87
2022/10/03 13:48:04;;;;;;;1.98;0.60;;;18.30;65.70;;;;;;4904692;28;81726;-86
2022/10/03 13:51:01;;;;;;;1.40;0.22;;;18.40;65.10;;;;;;4900605;28;82924;-86
2022/10/03 13:53:47;;;;;;;3.28;0.35;;;18.30;65.00;;;;;;4908365;28;81063;-86
2022/10/03 13:56:24;;;;;;;1.80;0.13;;;18.00;66.10;;;;;;4908682;28;81014;-87
2022/10/03 13:59:16;;;;;;;1.23;0.13;;;18.00;65.00;;;;;;4908737;28;82274;-87
2022/10/03 14:02:11;;;;;;;3.28;0.32;;;18.10;65.60;;;;;;4913226;28;81456;-87
2022/10/03 14:04:43;;;;;;;2.80;0.30;;;18.20;65.60;;;;;;4904701;28;82133;-86
2022/10/03 14:07:18;;;;;;;1.55;0.17;;;17.90;66.50;;;;;;4908717;28;82761;-87
2022/10/03 14:10:05;;;;;;;4.43;0.20;;;18.00;66.60;;;;;;4905117;28;81505;-86
2022/10/03 14:12:34;;;;;;;2.22;0.38;;;18.00;65.90;;;;;;4906685;28;82310;-87
2022/10/03 14:15:30;;;;;;;1.80;0.22;;;18.10;66.80;;;;;;4907293;28;81760;-86
2022/10/03 14:18:08;;;;;;;1.52;0.20;;;18.10;66.30;;;;;;4903969;28;81141;-87
2022/10/03 14:20:52;;;;;;;3.00;0.50;;;17.90;66.70;;;;;;4906003;28;82199;-86
2022/10/03 14:23:17;;;;;;;2.38;0.20;;;17.90;67.60;;;;;;4908077;28;82323;-86
2022/10/03 14:25:46;;;;;;;1.08;0.20;;;17.90;67.50;;;;;;4908265;28;81579;-87
2022/10/03 14:28:15;;;;;;;1.27;0.20;;;17.90;67.40;;;;;;4898820;28;81961;-87
2022/10/03 14:31:13;;;;;;;3.42;0.40;;;17.80;67.70;;;;;;4901258;28;83013;-86
2022/10/03 14:33:46;;;;;;;2.72;0.25;;;17.80;66.70;;;;;;4900873;28;82109;-87
2022/10/03 14:36:19;;;;;;;1.15;0.20;;;17.70;67.20;;;;;;4901688;28;81579;-87
2022/10/03 14:39:01;;;;;;;2.25;0.30;;;17.80;67.00;;;;;;4902531;28;81643;-87
2022/10/03 14:42:01;;;;;;;1.92;0.50;;;17.90;65.90;;;;;;4908696;28;81702;-86
2022/10/03 14:44:43;;;;;;;1.95;0.40;;;17.80;65.80;;;;;;4905347;28;82074;-87
2022/10/03 14:47:17;;;;;;;2.00;0.50;;;17.90;65.40;;;;;;4893954;28;81423;-86
2022/10/03 14:49:54;;;;;;;1.65;0.20;;;17.80;66.00;;;;;;4904591;28;82647;-86
2022/10/03 14:52:35;;;;;;;1.70;0.17;;;17.60;67.50;;;;;;4908392;28;81767;-86
2022/10/03 14:55:16;;;;;;;1.80;0.20;;;17.60;66.60;;;;;;4898225;28;82461;-86
2022/10/03 14:57:51;;;;;;;4.47;0.40;;;17.40;67.30;;;;;;4906796;28;82123;-86
2022/10/03 15:00:34;;;;;;;2.35;0.20;;;17.40;68.70;;;;;;4907597;28;81423;-86
2022/10/03 15:03:15;;;;;;;2.35;0.30;;;17.40;67.60;;;;;;4907788;28;81915;-86
2022/10/03 15:05:55;;;;;;;1.65;0.20;;;17.70;66.90;;;;;;4903263;28;81947;-86
2022/10/03 15:08:24;;;;;;;1.73;0.20;;;17.50;68.40;;;;;;4894905;28;81597;-86
2022/10/03 15:10:52;;;;;;;3.90;0.30;;;17.20;68.40;;;;;;4905181;28;81626;-86
2022/10/03 15:13:20;;;;;;;4.20;0.30;;;17.30;70.00;;;;;;4907097;28;81335;-86
2022/10/03 15:15:49;;;;;;;2.83;0.30;;;17.30;69.40;;;;;;4906061;28;81933;-85
2022/10/03 15:18:20;;;;;;;2.47;0.30;;;17.50;68.00;;;;;;4894592;28;84242;-86
2022/10/03 15:20:50;;;;;;;3.05;0.22;;;17.50;69.40;;;;;;4892104;28;82035;-83
2022/10/03 15:23:32;;;;;;;2.30;0.20;;;17.50;68.60;;;;;;4902283;28;83131;-83
2022/10/03 15:25:59;;;;;;;1.20;0.30;;;17.30;67.80;;;;;;4904360;28;82598;-85
2022/10/03 15:28:48;;;;;;;1.63;0.20;;;17.40;68.60;;;;;;4897074;28;82454;-84
2022/10/03 15:31:39;;;;;;;1.52;0.20;;;17.50;66.80;;;;;;4895247;28;81951;-86
2022/10/03 15:34:14;;;;;;;4.45;0.50;;;17.50;66.70;;;;;;4900989;28;82875;-83
2022/10/03 15:36:44;;;;;;;1.17;0.20;;;17.40;67.60;;;;;;4901107;28;82381;-83
2022/10/03 15:39:27;;;;;;;1.33;0.13;;;17.30;68.50;;;;;;4904063;28;81520;-83
2022/10/03 15:42:08;;;;;;;1.95;0.22;;;17.50;69.40;;;;;;4899892;28;81591;-83
2022/10/03 15:44:38;;;;;;;2.97;0.20;;;17.60;69.80;;;;;;4900926;28;81908;-85
2022/10/03 15:47:18;;;;;;;3.58;0.20;;;17.60;70.70;;;;;;4905175;28;81408;-84
2022/10/03 15:49:54;;;;;;;2.08;0.40;;;17.60;70.70;;;;;;4904717;28;82684;-83
2022/10/03 15:53:01;;;;;;;1.63;0.20;;;17.60;71.30;;;;;;4903987;28;81807;-84
2022/10/03 15:55:38;;;;;;;4.75;0.28;;;17.70;71.30;;;;;;4892919;28;82754;-83
2022/10/03 15:58:22;;;;;;;2.47;0.22;;;17.70;71.10;;;;;;4898679;28;81799;-86
2022/10/03 16:01:03;;;;;;;2.17;0.20;;;17.60;71.60;;;;;;4904065;28;81834;-83
2022/10/03 16:03:46;;;;;;;1.52;0.30;;;17.60;71.40;;;;;;4898181;28;81899;-83
2022/10/03 16:06:23;;;;;;;1.65;0.25;;;17.50;71.40;;;;;;4894270;28;82045;-84
2022/10/03 16:09:14;;;;;;;1.50;0.30;;;17.50;72.30;;;;;;4891574;28;82420;-84
2022/10/03 16:12:14;;;;;;;1.83;0.30;;;17.50;72.90;;;;;;4898241;28;83611;-83
2022/10/03 16:14:48;;;;;;;3.30;0.25;;;17.40;73.30;;;;;;4897602;28;81948;-83
2022/10/03 16:18:10;;;;;;;2.22;0.45;;;17.30;73.80;;;;;;4900814;28;84891;-84
2022/10/03 16:20:41;;;;;;;1.50;0.40;;;17.10;74.50;;;;;;4826362;29;82247;-83
2022/10/03 16:23:22;;;;;;;1.58;0.25;;;16.80;76.50;;;;;;4884903;28;81512;-83
2022/10/03 16:25:58;;;;;;;2.13;0.40;;;16.60;77.40;;;;;;4903156;28;82239;-85
2022/10/03 16:28:32;;;;;;;1.88;0.25;;;16.60;78.50;;;;;;4903426;28;82647;-84
2022/10/03 16:31:05;;;;;;;1.20;0.20;;;16.60;78.00;;;;;;4900692;28;81818;-83
2022/10/03 16:33:38;;;;;;;1.30;0.20;;;16.70;77.90;;;;;;4903031;28;81487;-86
2022/10/03 16:36:09;;;;;;;2.13;0.32;;;16.80;77.70;;;;;;4901979;28;81543;-83
2022/10/03 16:39:03;;;;;;;3.60;0.52;;;16.90;76.80;;;;;;4904856;28;82752;-86
2022/10/03 16:41:39;;;;;;;4.22;0.40;;;16.90;77.40;;;;;;4897556;28;82309;-84
2022/10/03 16:44:17;;;;;;;3.15;0.40;;;16.80;76.80;;;;;;4895666;28;82850;-85
2022/10/03 16:46:44;;;;;;;1.73;0.40;;;16.80;76.90;;;;;;4903613;28;81526;-84
2022/10/03 16:52:20;;;;;;;6.00;0.40;;;16.60;77.20;;;;;;4900001;28;82194;-84
2022/10/03 16:54:46;;;;;;;2.50;0.55;;;16.50;78.60;;;;;;4903782;28;81531;-84
2022/10/03 16:57:28;;;;;;;2.10;0.50;;;16.30;79.80;;;;;;4894648;28;82048;-84
2022/10/03 16:59:55;;;;;;;3.15;0.60;;;16.20;79.90;;;;;;4903114;28;82697;-84
2022/10/03 17:02:25;;;;;;;2.08;0.63;;;16.10;80.20;;;;;;4904399;28;82272;-84
2022/10/03 17:04:59;;;;;;;2.92;0.85;;;16.10;80.60;;;;;;4901579;28;82714;-84
2022/10/03 17:07:34;;;;;;;4.00;0.57;;;16.10;80.80;;;;;;4906788;28;81507;-84
2022/10/03 17:10:01;;;;;;;2.67;0.77;;;16.10;80.50;;;;;;4907840;28;83084;-85
2022/10/03 17:12:36;;;;;;;2.80;0.60;;;16.10;80.50;;;;;;4906615;28;82314;-84
2022/10/03 17:15:08;;;;;;;2.88;0.50;;;16.00;80.90;;;;;;4914428;28;81888;-84
2022/10/03 17:17:43;;;;;;;2.47;0.70;;;16.00;81.50;;;;;;4904914;28;82275;-88